Time;durP1;ratioP1;P1;durP2;ratioP2;P2;SDS_P1;SDS_P2;PMS_P1;PMS_P2;Temp;Humidity;BMP_temperature;BMP_pressure;BME280_temperature;BME280_humidity;BME280_pressure;Samples;Min_cycle;Max_cycle;Signal;HPM_P1;HPM_P2
2022/09/24 00:00:34;;;;;;;22.70;18.13;;;;;;;12.43;100.00;101352.16;6123088;23;20153;-72
2022/09/24 00:03:00;;;;;;;19.90;17.80;;;;;;;12.42;100.00;101350.50;6122210;23;20212;-72
2022/09/24 00:05:25;;;;;;;19.80;17.40;;;;;;;12.35;100.00;101323.59;6120814;23;20181;-72
2022/09/24 00:07:51;;;;;;;21.23;16.50;;;;;;;12.35;100.00;101314.66;6122919;23;20157;-72
2022/09/24 00:10:16;;;;;;;20.20;16.70;;;;;;;12.87;100.00;101394.84;6123108;23;20160;-71
2022/09/24 00:12:41;;;;;;;19.40;17.50;;;;;;;12.56;100.00;101360.31;6122695;23;20205;-71
2022/09/24 00:15:08;;;;;;;22.07;19.57;;;;;;;11.76;100.00;101237.97;6122956;23;20146;-71
2022/09/24 00:17:33;;;;;;;25.53;22.63;;;;;;;12.58;100.00;101366.34;6123004;23;20154;-71
2022/09/24 00:19:58;;;;;;;24.63;21.90;;;;;;;12.72;100.00;101369.91;6123350;23;20405;-69
2022/09/24 00:22:24;;;;;;;24.90;21.97;;;;;;;12.83;100.00;101384.66;6120924;23;20197;-71
2022/09/24 00:27:33;;;;;;;24.00;21.43;;;;;;;12.85;100.00;101372.66;6121448;23;20164;-71
2022/09/24 00:29:58;;;;;;;28.93;23.97;;;;;;;12.64;100.00;101349.41;6122108;23;20846;-71
2022/09/24 00:32:24;;;;;;;23.70;20.97;;;;;;;12.76;100.00;101363.09;6121177;23;20169;-70
2022/09/24 00:34:53;;;;;;;28.53;24.27;;;;;;;12.98;100.00;101371.06;6121135;23;20156;-70
2022/09/24 00:37:19;;;;;;;31.73;25.50;;;;;;;12.89;100.00;101378.47;6096363;23;20232;-70
2022/09/24 00:39:45;;;;;;;32.90;26.10;;;;;;;12.81;100.00;101351.72;6120901;23;20777;-71
2022/09/24 00:42:11;;;;;;;27.50;24.67;;;;;;;12.98;100.00;101377.25;6119387;23;20877;-70
2022/09/24 00:44:39;;;;;;;27.07;24.10;;;;;;;12.94;100.00;101375.19;6119986;23;20418;-70
2022/09/24 00:47:10;;;;;;;29.60;26.37;;;;;;;12.81;100.00;101363.31;6120138;23;20385;-70
2022/09/24 00:49:36;;;;;;;32.33;26.80;;;;;;;12.77;100.00;101337.00;6095678;23;20433;-70
2022/09/24 00:52:02;;;;;;;28.70;25.10;;;;;;;12.64;100.00;101317.09;6095444;23;20401;-71
2022/09/24 00:54:28;;;;;;;30.03;26.77;;;;;;;12.97;100.00;101364.00;6120834;23;20370;-71
2022/09/24 00:56:56;;;;;;;31.33;27.73;;;;;;;12.89;100.00;101367.69;6122025;23;20150;-70
2022/09/24 00:59:24;;;;;;;35.50;29.80;;;;;;;12.77;100.00;101337.00;6120956;23;20385;-71
2022/09/24 01:01:56;;;;;;;36.03;31.20;;;;;;;12.41;100.00;101293.19;6120877;23;20401;-71
2022/09/24 01:04:22;;;;;;;34.50;30.67;;;;;;;12.77;100.00;101356.69;6121235;23;20778;-71
2022/09/24 01:06:48;;;;;;;35.57;30.40;;;;;;;12.82;100.00;101364.16;6094389;23;20737;-71
2022/09/24 01:09:19;;;;;;;38.17;29.87;;;;;;;12.87;100.00;101367.91;6119267;23;20381;-71
2022/09/24 01:12:05;;;;;;;36.93;30.63;;;;;;;12.39;100.00;101310.56;6119011;23;20366;-71
2022/09/24 01:14:35;;;;;;;37.57;31.40;;;;;;;12.28;100.00;101276.16;6091686;23;20377;-71
2022/09/24 01:17:16;;;;;;;34.53;30.93;;;;;;;12.88;100.00;101363.38;6119909;23;20838;-71
2022/09/24 01:20:12;;;;;;;39.70;32.73;;;;;;;12.88;100.00;101360.66;6117096;23;20718;-71
2022/09/24 01:22:56;;;;;;;40.80;35.80;;;;;;;12.84;100.00;101354.00;6119712;23;20422;-71
2022/09/24 01:25:40;;;;;;;36.07;32.13;;;;;;;12.79;100.00;101354.63;6118082;23;20485;-71
2022/09/24 01:28:27;;;;;;;36.40;32.23;;;;;;;12.89;100.00;101348.84;6092708;23;20378;-71
2022/09/24 01:31:02;;;;;;;44.37;35.17;;;;;;;12.59;100.00;101334.88;6117663;23;20369;-71
2022/09/24 01:33:30;;;;;;;46.27;37.37;;;;;;;12.71;100.00;101338.66;6088228;23;20431;-72
2022/09/24 01:36:03;;;;;;;48.03;38.53;;;;;;;12.68;100.00;101357.88;6115466;23;20870;-71
2022/09/24 01:38:34;;;;;;;39.87;35.33;;;;;;;12.48;100.00;101309.34;6092957;23;20469;-71
2022/09/24 01:41:02;;;;;;;46.70;38.87;;;;;;;12.69;100.00;101353.34;6118247;23;20724;-71
2022/09/24 01:43:29;;;;;;;42.03;36.70;;;;;;;12.68;100.00;101340.91;6117019;23;20718;-71
2022/09/24 01:45:58;;;;;;;44.80;36.80;;;;;;;12.61;100.00;101333.66;6116868;23;20414;-71
2022/09/24 01:48:27;;;;;;;48.77;37.77;;;;;;;12.64;100.00;101343.16;6118652;23;20855;-71
2022/09/24 01:51:09;;;;;;;43.60;36.27;;;;;;;12.78;100.00;101354.81;6117538;23;20385;-72
2022/09/24 01:53:46;;;;;;;44.97;35.83;;;;;;;12.67;100.00;101332.03;6092773;23;20468;-72
2022/09/24 01:56:21;;;;;;;41.03;36.50;;;;;;;12.44;100.00;101275.81;6094034;23;20400;-71
2022/09/24 01:59:05;;;;;;;46.47;37.80;;;;;;;12.78;100.00;101342.19;6119215;23;20369;-71
2022/09/24 02:01:46;;;;;;;45.10;37.53;;;;;;;12.07;100.00;101223.31;6120030;23;20370;-71
2022/09/24 02:04:15;;;;;;;47.33;38.97;;;;;;;12.76;100.00;101321.91;6117994;23;20706;-72
2022/09/24 02:06:51;;;;;;;44.90;40.00;;;;;;;12.83;100.00;101344.28;6121313;23;20503;-71
2022/09/24 02:09:34;;;;;;;46.00;40.00;;;;;;;12.79;100.00;101343.88;6122179;23;20404;-71
2022/09/24 02:12:07;;;;;;;52.10;40.37;;;;;;;12.89;100.00;101341.59;6121387;23;20410;-71
2022/09/24 02:14:38;;;;;;;48.13;37.30;;;;;;;12.94;100.00;101340.19;6122403;23;20401;-71
2022/09/24 02:17:06;;;;;;;40.27;32.53;;;;;;;12.93;100.00;101339.38;6120371;23;20377;-71
2022/09/24 02:19:35;;;;;;;45.73;39.67;;;;;;;12.89;100.00;101340.78;6122099;23;20439;-70
2022/09/24 02:22:01;;;;;;;51.60;40.30;;;;;;;12.45;100.00;101280.16;6094973;23;20417;-70
2022/09/24 02:24:42;;;;;;;43.30;38.37;;;;;;;12.42;100.00;101286.78;6094085;23;20421;-71
2022/09/24 02:27:08;;;;;;;44.53;38.23;;;;;;;12.84;100.00;101346.78;6095655;23;20408;-71
2022/09/24 02:29:34;;;;;;;54.13;43.97;;;;;;;12.81;100.00;101341.78;6120252;23;20849;-71
2022/09/24 02:32:02;;;;;;;50.07;40.83;;;;;;;12.42;100.00;101264.41;6094877;23;20184;-71
2022/09/24 02:34:37;;;;;;;51.57;42.57;;;;;;;12.30;100.00;101256.09;6121163;23;20408;-71
2022/09/24 02:37:09;;;;;;;47.50;38.93;;;;;;;12.86;100.00;101325.84;6095448;23;20374;-71
2022/09/24 02:39:35;;;;;;;49.97;40.80;;;;;;;12.88;100.00;101323.81;6094994;23;20877;-71
2022/09/24 02:42:04;;;;;;;47.27;40.63;;;;;;;12.86;100.00;101333.09;6118169;23;20407;-71
2022/09/24 02:44:30;;;;;;;48.20;42.87;;;;;;;12.97;100.00;101331.72;6093760;23;20185;-72
2022/09/24 02:46:55;;;;;;;50.17;44.83;;;;;;;12.83;100.00;101334.34;6120211;23;20382;-71
2022/09/24 02:49:21;;;;;;;52.03;44.70;;;;;;;12.97;100.00;101337.09;6119807;23;20153;-71
2022/09/24 02:51:46;;;;;;;51.63;45.60;;;;;;;12.55;100.00;101272.53;6120999;23;20997;-71
2022/09/24 02:54:12;;;;;;;55.20;46.43;;;;;;;12.96;100.00;101330.03;6121186;23;20521;-71
2022/09/24 02:56:37;;;;;;;52.63;46.53;;;;;;;12.95;100.00;101333.75;6121285;23;20628;-71
2022/09/24 02:59:03;;;;;;;54.60;46.17;;;;;;;12.94;100.00;101332.94;6122973;23;20278;-71
2022/09/24 03:01:30;;;;;;;50.90;44.77;;;;;;;13.07;100.00;101335.66;6120370;23;20488;-71
2022/09/24 03:03:56;;;;;;;49.47;43.70;;;;;;;12.94;100.00;101313.25;6121135;23;20412;-71
2022/09/24 03:06:23;;;;;;;52.17;46.33;;;;;;;12.26;100.00;101209.09;6122090;23;20417;-71
2022/09/24 03:08:49;;;;;;;58.80;44.53;;;;;;;12.63;100.00;101272.34;6122028;23;20378;-70
2022/09/24 03:11:15;;;;;;;58.10;48.53;;;;;;;12.65;100.00;101281.06;6122564;23;20374;-71
2022/09/24 03:13:40;;;;;;;52.97;46.97;;;;;;;12.28;100.00;101225.03;6121314;23;20433;-71
2022/09/24 03:16:06;;;;;;;57.23;48.80;;;;;;;12.98;100.00;101334.19;6121597;23;20177;-71
2022/09/24 03:18:33;;;;;;;53.70;45.17;;;;;;;12.53;100.00;101279.16;6120602;23;20228;-71
2022/09/24 03:21:09;;;;;;;63.03;49.47;;;;;;;12.64;100.00;101298.25;6122737;23;20237;-71
2022/09/24 03:23:35;;;;;;;54.37;48.53;;;;;;;12.87;100.00;101324.84;6121791;23;20419;-71
2022/09/24 03:26:02;;;;;;;51.70;46.07;;;;;;;12.44;100.00;101255.13;6121956;23;20941;-72
2022/09/24 03:28:28;;;;;;;56.57;49.60;;;;;;;13.01;100.00;101341.03;6095666;23;20177;-70
2022/09/24 03:30:59;;;;;;;54.80;45.83;;;;;;;12.76;100.00;101293.13;6122872;23;20481;-71
2022/09/24 03:33:35;;;;;;;54.43;46.10;;;;;;;13.00;100.00;101337.50;6121155;23;20401;-71
2022/09/24 03:36:02;;;;;;;56.80;50.50;;;;;;;12.98;100.00;101334.19;6122779;23;20896;-71
2022/09/24 03:38:28;;;;;;;53.47;45.30;;;;;;;13.02;100.00;101340.00;6122293;23;20461;-71
2022/09/24 03:40:55;;;;;;;51.80;46.20;;;;;;;13.04;100.00;101335.22;6122922;23;20764;-71
2022/09/24 03:43:22;;;;;;;51.03;45.37;;;;;;;13.05;100.00;101342.31;6095101;23;20440;-71
2022/09/24 03:45:48;;;;;;;53.30;47.50;;;;;;;13.03;100.00;101338.97;6122325;23;20413;-71
2022/09/24 03:48:15;;;;;;;49.90;44.37;;;;;;;12.61;100.00;101268.22;6121991;23;20370;-71
2022/09/24 03:50:40;;;;;;;52.97;45.73;;;;;;;12.87;100.00;101316.78;6120691;23;20158;-71
2022/09/24 03:53:06;;;;;;;49.00;42.97;;;;;;;12.95;100.00;101325.69;6094110;23;20409;-71
2022/09/24 03:55:31;;;;;;;51.67;46.13;;;;;;;12.27;100.00;101215.31;6123849;23;20177;-71
2022/09/24 03:57:57;;;;;;;47.63;42.50;;;;;;;12.86;100.00;101315.09;6123045;23;20598;-71
2022/09/24 04:00:22;;;;;;;47.17;42.47;;;;;;;13.01;100.00;101338.34;6096946;23;20158;-71
2022/09/24 04:02:48;;;;;;;49.93;40.60;;;;;;;12.94;100.00;101327.56;6122636;23;20261;-71
2022/09/24 04:05:14;;;;;;;45.43;40.70;;;;;;;13.03;100.00;101339.78;6122671;23;20629;-71
2022/09/24 04:07:42;;;;;;;41.00;35.93;;;;;;;12.68;100.00;101276.31;6097231;23;20396;-71
2022/09/24 04:10:08;;;;;;;41.13;36.73;;;;;;;13.01;100.00;101330.25;6122640;23;20161;-70
2022/09/24 04:12:33;;;;;;;41.50;37.13;;;;;;;12.80;100.00;101298.94;6122040;23;20397;-70
2022/09/24 04:15:01;;;;;;;36.57;32.80;;;;;;;13.05;100.00;101335.03;6123224;23;20837;-71
2022/09/24 04:17:30;;;;;;;37.50;33.47;;;;;;;12.86;100.00;101317.78;6094722;23;20158;-71
2022/09/24 04:19:59;;;;;;;39.30;35.07;;;;;;;12.69;100.00;101275.28;6097244;23;20394;-70
2022/09/24 04:22:26;;;;;;;36.70;32.80;;;;;;;12.41;100.00;101246.59;6120363;23;20398;-71
2022/09/24 04:24:52;;;;;;;37.37;33.50;;;;;;;12.68;100.00;101290.59;6094263;23;20476;-71
2022/09/24 04:27:19;;;;;;;39.50;35.40;;;;;;;12.96;100.00;101333.56;6122339;23;20841;-71
2022/09/24 04:29:44;;;;;;;37.93;33.70;;;;;;;12.24;100.00;101221.94;6096273;23;20158;-71
2022/09/24 04:32:10;;;;;;;39.33;35.27;;;;;;;12.99;100.00;101335.00;6120465;23;20436;-71
2022/09/24 04:34:35;;;;;;;36.37;32.57;;;;;;;12.33;100.00;101236.88;6121104;23;20150;-71
2022/09/24 04:37:00;;;;;;;37.03;33.23;;;;;;;13.02;100.00;101334.63;6121920;23;20210;-71
2022/09/24 04:39:26;;;;;;;37.30;33.30;;;;;;;12.92;100.00;101315.31;6096743;23;20158;-71
2022/09/24 04:41:53;;;;;;;35.77;32.00;;;;;;;12.99;100.00;101337.69;6094526;23;20165;-72
2022/09/24 04:44:18;;;;;;;45.37;32.27;;;;;;;12.89;100.00;101317.38;6122269;23;20555;-72
2022/09/24 04:46:44;;;;;;;35.13;31.43;;;;;;;12.11;100.00;101195.78;6122655;23;20448;-71
2022/09/24 04:49:09;;;;;;;33.50;29.50;;;;;;;12.67;100.00;101286.25;6122942;23;20146;-71
2022/09/24 04:51:35;;;;;;;38.73;32.23;;;;;;;12.88;100.00;101313.03;6096698;23;20161;-71
2022/09/24 04:54:04;;;;;;;32.77;29.47;;;;;;;13.00;100.00;101321.34;6122606;23;20174;-71
2022/09/24 04:56:30;;;;;;;34.60;28.77;;;;;;;12.92;100.00;101310.75;6120782;23;21227;-71
2022/09/24 04:58:56;;;;;;;35.03;31.20;;;;;;;12.98;100.00;101317.19;6122722;23;20416;-71
2022/09/24 05:01:23;;;;;;;34.03;29.33;;;;;;;12.98;100.00;101323.41;6121937;23;20841;-71
2022/09/24 05:03:48;;;;;;;30.13;27.03;;;;;;;13.00;100.00;101339.38;6122069;23;20413;-71
2022/09/24 05:06:15;;;;;;;30.37;27.00;;;;;;;12.60;100.00;101245.84;6097148;23;20757;-71
2022/09/24 05:08:40;;;;;;;30.70;27.40;;;;;;;12.95;100.00;101298.75;6096965;23;20433;-71
2022/09/24 05:11:06;;;;;;;25.33;21.23;;;;;;;13.21;100.00;101322.22;6122957;23;20176;-71
2022/09/24 05:13:32;;;;;;;23.90;21.07;;;;;;;13.16;100.00;101308.53;6121016;23;20970;-71
2022/09/24 05:15:59;;;;;;;21.73;18.57;;;;;;;13.34;100.00;101328.50;6122617;23;20154;-72
2022/09/24 05:18:25;;;;;;;18.00;16.10;;;;;;;13.22;100.00;101295.09;6122839;23;20436;-72
2022/09/24 05:20:51;;;;;;;19.93;16.53;;;;;;;13.45;100.00;101328.91;6096126;23;20413;-71
2022/09/24 05:23:16;;;;;;;16.40;14.73;;;;;;;13.28;100.00;101293.47;6122161;23;20412;-71
2022/09/24 05:28:26;;;;;;;15.40;12.80;;;;;;;13.26;100.00;101290.16;6122699;23;20153;-71
2022/09/24 05:30:56;;;;;;;17.17;9.33;;;;;;;13.45;100.00;101318.13;6095697;23;20393;-71
2022/09/24 05:33:21;;;;;;;10.63;8.30;;;;;;;13.46;100.00;101306.34;6121504;23;20225;-72
2022/09/24 05:35:53;;;;;;;16.60;7.80;;;;;;;13.43;100.00;101310.28;6121665;23;20377;-71
2022/09/24 05:38:18;;;;;;;10.20;5.50;;;;;;;13.53;100.00;101326.84;6093900;23;20154;-71
2022/09/24 05:40:47;;;;;;;15.80;4.90;;;;;;;13.23;100.00;101277.06;6122675;23;20389;-71
2022/09/24 05:43:13;;;;;;;7.00;3.33;;;;;;;12.90;100.00;101232.03;6095389;23;20178;-71
2022/09/24 05:45:38;;;;;;;11.60;3.90;;;;;;;13.40;100.00;101321.47;6120606;23;20429;-72
2022/09/24 05:48:04;;;;;;;9.30;3.80;;;;;;;12.80;100.00;101212.78;6095075;23;20394;-71
2022/09/24 05:50:33;;;;;;;6.13;3.00;;;;;;;13.50;100.00;101312.97;6122081;23;20149;-71
2022/09/24 05:53:02;;;;;;;6.00;2.20;;;;;;;13.62;100.00;101343.66;6095848;23;20181;-71
2022/09/24 05:55:28;;;;;;;7.90;2.07;;;;;;;13.66;100.00;101339.53;6118058;23;20837;-70
2022/09/24 05:57:54;;;;;;;10.33;1.83;;;;;;;13.67;100.00;101346.56;6095194;23;20397;-70
2022/09/24 06:00:19;;;;;;;10.27;2.80;;;;;;;13.73;100.00;101348.44;6122743;23;20225;-72
2022/09/24 06:02:45;;;;;;;8.93;2.07;;;;;;;13.72;100.00;101343.25;6093648;23;20244;-70
2022/09/24 06:05:11;;;;;;;5.43;1.60;;;;;;;13.51;100.00;101291.22;6120950;23;20665;-70
2022/09/24 06:07:36;;;;;;;5.50;1.97;;;;;;;13.79;100.00;101341.38;6121491;23;20153;-70
2022/09/24 06:10:04;;;;;;;8.60;2.10;;;;;;;13.18;100.00;101237.28;6122209;23;20960;-70
2022/09/24 06:12:32;;;;;;;7.27;2.20;;;;;;;13.51;100.00;101299.31;6095552;23;20512;-70
2022/09/24 06:14:58;;;;;;;8.00;2.03;;;;;;;13.70;100.00;101335.38;6095764;23;20413;-70
2022/09/24 06:17:24;;;;;;;7.80;1.77;;;;;;;13.71;100.00;101339.75;6121402;23;20406;-73
2022/09/24 06:19:50;;;;;;;4.33;1.90;;;;;;;13.65;100.00;101334.31;6120187;23;20160;-70
2022/09/24 06:22:16;;;;;;;8.00;2.03;;;;;;;13.37;100.00;101294.94;6120442;23;21052;-70
2022/09/24 06:24:41;;;;;;;5.47;1.63;;;;;;;13.68;100.00;101340.16;6116870;23;20425;-70
2022/09/24 06:27:07;;;;;;;8.83;1.80;;;;;;;13.52;100.00;101313.59;6122188;23;20181;-71
2022/09/24 06:29:33;;;;;;;6.20;2.17;;;;;;;13.52;100.00;101300.94;6120740;23;20156;-70
2022/09/24 06:32:00;;;;;;;5.07;1.90;;;;;;;13.69;100.00;101332.88;6118218;23;20428;-71
2022/09/24 06:34:26;;;;;;;8.80;2.17;;;;;;;13.87;100.00;101337.66;6117674;23;20150;-71
2022/09/24 06:36:55;;;;;;;6.43;2.50;;;;;;;13.93;100.00;101344.91;6093863;23;20546;-71
2022/09/24 06:39:24;;;;;;;5.63;1.63;;;;;;;13.60;100.00;101285.59;6093738;23;20397;-71
2022/09/24 06:41:50;;;;;;;9.03;2.20;;;;;;;13.79;100.00;101358.38;6121009;23;20881;-71
2022/09/24 06:44:16;;;;;;;6.40;1.67;;;;;;;13.68;100.00;101329.38;6119032;23;20381;-72
2022/09/24 06:46:42;;;;;;;7.13;1.60;;;;;;;13.61;100.00;101320.44;6119613;23;20161;-72
2022/09/24 06:49:07;;;;;;;9.40;2.13;;;;;;;13.49;100.00;101316.72;6095834;23;20409;-72
2022/09/24 06:51:33;;;;;;;7.43;2.00;;;;;;;13.11;100.00;101239.13;6121160;23;20594;-72
2022/09/24 06:53:58;;;;;;;5.63;1.70;;;;;;;13.81;100.00;101349.28;6118820;23;20491;-72
2022/09/24 06:56:23;;;;;;;6.37;1.70;;;;;;;13.41;100.00;101260.31;6095533;23;20158;-71
2022/09/24 06:58:49;;;;;;;4.80;1.53;;;;;;;13.61;100.00;101308.84;6121578;23;20189;-70
2022/09/24 07:01:14;;;;;;;4.77;1.70;;;;;;;13.60;100.00;101293.69;6091961;23;20161;-71
2022/09/24 07:03:39;;;;;;;6.97;1.60;;;;;;;13.78;100.00;101318.97;6118470;23;20213;-72
2022/09/24 07:06:06;;;;;;;7.93;1.93;;;;;;;13.90;100.00;101350.72;6089126;23;20188;-71
2022/09/24 07:08:32;;;;;;;9.30;3.80;;;;;;;13.68;100.00;101333.91;6093679;23;20186;-71
2022/09/24 07:10:59;;;;;;;10.77;5.10;;;;;;;14.15;100.00;101377.88;6091310;23;20378;-72
2022/09/24 07:13:24;;;;;;;8.23;6.90;;;;;;;13.63;100.00;101287.91;6093862;23;20414;-71
2022/09/24 07:15:51;;;;;;;12.60;8.73;;;;;;;13.91;100.00;101325.41;6087887;23;20374;-70
2022/09/24 07:18:17;;;;;;;13.67;11.23;;;;;;;14.18;100.00;101378.28;6091979;23;20153;-71
2022/09/24 07:20:43;;;;;;;15.20;11.30;;;;;;;13.81;100.00;101317.75;6093320;23;20378;-72
2022/09/24 07:23:10;;;;;;;14.30;12.70;;;;;;;13.82;100.00;101307.78;6117609;23;20723;-72
2022/09/24 07:25:37;;;;;;;13.50;12.10;;;;;;;14.31;100.00;101393.63;6115779;23;20421;-71
2022/09/24 07:28:05;;;;;;;13.87;11.60;;;;;;;14.34;100.00;101387.81;6119126;23;20378;-71
2022/09/24 07:30:32;;;;;;;13.07;11.77;;;;;;;14.17;100.00;101355.03;6117853;23;20885;-71
2022/09/24 07:32:57;;;;;;;13.00;11.17;;;;;;;14.27;100.00;101369.97;6117488;23;20450;-70
2022/09/24 07:35:23;;;;;;;13.20;11.43;;;;;;;13.97;100.00;101327.25;6117438;23;20783;-71
2022/09/24 07:37:59;;;;;;;11.67;10.20;;;;;;;14.37;100.00;101381.16;6116906;23;20158;-70
2022/09/24 07:40:25;;;;;;;12.43;11.13;;;;;;;14.43;100.00;101399.19;6118039;23;20691;-71
2022/09/24 07:42:51;;;;;;;12.00;10.43;;;;;;;14.45;100.00;101405.22;6118043;23;20406;-71
2022/09/24 07:45:16;;;;;;;10.50;9.50;;;;;;;14.36;100.00;101380.34;6115726;23;20958;-72
2022/09/24 07:47:42;;;;;;;9.50;8.30;;;;;;;14.05;100.00;101329.75;6119154;23;20228;-70
2022/09/24 07:50:08;;;;;;;8.80;7.70;;;;;;;14.46;100.00;101394.22;6120505;23;20157;-71
2022/09/24 07:52:34;;;;;;;5.10;4.60;;;;;;;14.16;100.00;101356.06;6120247;23;20698;-71
2022/09/24 07:55:00;;;;;;;5.00;4.50;;;;;;;14.24;100.00;101366.66;6117251;23;20453;-71
2022/09/24 07:57:26;;;;;;;3.47;3.10;;;;;;;13.64;100.00;101274.19;6120580;23;20500;-72
2022/09/24 07:59:52;;;;;;;3.50;3.10;;;;;;;14.28;100.00;101375.16;6116556;23;20165;-71
2022/09/24 08:02:18;;;;;;;4.47;3.47;;;;;;;14.55;100.00;101413.78;6118511;23;20445;-71
2022/09/24 08:04:44;;;;;;;3.13;2.83;;;;;;;14.47;100.00;101413.94;6119739;23;20417;-70
2022/09/24 08:07:11;;;;;;;4.83;2.80;;;;;;;14.47;100.00;101408.56;6092407;23;20390;-70
2022/09/24 08:09:37;;;;;;;3.10;2.20;;;;;;;14.56;100.00;101415.41;6120732;23;20245;-73
2022/09/24 08:12:03;;;;;;;3.20;2.40;;;;;;;14.47;100.00;101376.16;6118319;23;20409;-71
2022/09/24 08:14:29;;;;;;;3.10;2.60;;;;;;;14.47;100.00;101390.50;6117773;23;20382;-71
2022/09/24 08:16:54;;;;;;;3.67;2.60;;;;;;;14.23;100.00;101353.34;6119547;23;20162;-73
2022/09/24 08:19:19;;;;;;;2.90;2.47;;;;;;;14.58;100.00;101407.94;6121625;23;20253;-72
2022/09/24 08:21:47;;;;;;;3.50;2.50;;;;;;;14.65;100.00;101408.75;6094879;23;20162;-73
2022/09/24 08:24:13;;;;;;;3.23;2.40;;;;;;;14.27;100.00;101326.81;6119337;23;20153;-75
2022/09/24 08:26:39;;;;;;;4.13;2.57;;;;;;;14.60;100.00;101369.91;6118246;23;20428;-74
2022/09/24 08:29:04;;;;;;;3.27;2.40;;;;;;;14.97;100.00;101418.81;6119182;23;20401;-71
2022/09/24 08:31:30;;;;;;;1.70;1.50;;;;;;;14.83;100.00;101389.16;6089577;23;20193;-74
2022/09/24 08:33:56;;;;;;;2.07;1.33;;;;;;;14.87;100.00;101411.19;6093784;23;20174;-74
2022/09/24 08:36:21;;;;;;;2.13;1.13;;;;;;;14.67;100.00;101368.88;6118648;23;20237;-74
2022/09/24 08:38:47;;;;;;;1.73;1.37;;;;;;;14.81;100.00;101377.75;6120928;23;20468;-74
2022/09/24 08:41:20;;;;;;;1.73;1.50;;;;;;;14.73;100.00;101355.56;6120353;23;20681;-74
2022/09/24 08:44:02;;;;;;;2.10;1.90;;;;;;;14.85;100.00;101388.94;6117494;23;20228;-74
2022/09/24 08:49:26;;;;;;;2.80;1.90;;;;;;;14.50;100.00;101343.34;6120567;23;20446;-73
2022/09/24 08:52:04;;;;;;;4.33;1.90;;;;;;;14.89;100.00;101401.81;6119576;23;20374;-74
2022/09/24 08:54:33;;;;;;;2.90;2.47;;;;;;;14.57;100.00;101364.94;6093489;23;20385;-73
2022/09/24 08:57:05;;;;;;;2.20;2.00;;;;;;;14.87;100.00;101406.59;6119842;23;20867;-74
2022/09/24 08:59:32;;;;;;;2.47;2.27;;;;;;;14.93;100.00;101410.31;6094023;23;20468;-75
2022/09/24 09:02:16;;;;;;;2.70;2.40;;;;;;;15.07;100.00;101409.22;6093649;23;20381;-72
2022/09/24 09:05:00;;;;;;;2.93;2.40;;;;;;;14.80;100.00;101350.94;6121228;23;20417;-74
2022/09/24 09:07:32;;;;;;;2.53;2.30;;;;;;;15.11;100.00;101396.94;6122453;23;20398;-73
2022/09/24 09:10:03;;;;;;;3.03;2.73;;;;;;;15.15;100.00;101416.25;6092091;23;20378;-72
2022/09/24 09:12:44;;;;;;;2.47;2.27;;;;;;;15.24;100.00;101401.44;6119216;23;20456;-71
2022/09/24 09:15:19;;;;;;;2.83;2.07;;;;;;;15.29;100.00;101401.63;6119324;23;20358;-72
2022/09/24 09:17:53;;;;;;;2.03;1.83;;;;;;;15.32;100.00;101405.78;6116658;23;20373;-72
2022/09/24 09:20:42;;;;;;;2.70;1.97;;;;;;;14.46;100.00;101269.22;6119935;23;20413;-72
2022/09/24 09:23:33;;;;;;;4.03;2.33;;;;;;;15.32;100.00;101403.88;6093007;23;20442;-72
2022/09/24 09:25:59;;;;;;;3.20;2.30;;;;;;;15.24;100.00;101396.03;6092360;23;20428;-72
2022/09/24 09:28:28;;;;;;;2.43;1.93;;;;;;;15.14;100.00;101368.66;6122835;23;20719;-73
2022/09/24 09:31:30;;;;;;;2.53;2.30;;;;;;;15.26;100.00;101395.81;6094263;23;20212;-73
2022/09/24 09:34:14;;;;;;;3.60;2.20;;;;;;;15.32;100.00;101395.78;6120680;23;20772;-73
2022/09/24 09:36:44;;;;;;;1.90;1.70;;;;;;;15.23;100.00;101383.56;6096535;23;20386;-73
2022/09/24 09:39:42;;;;;;;2.20;1.90;;;;;;;15.19;100.00;101386.91;6121201;23;20864;-73
2022/09/24 09:42:29;;;;;;;2.20;2.00;;;;;;;15.17;100.00;101370.94;6122309;23;20469;-73
2022/09/24 09:44:54;;;;;;;3.27;2.33;;;;;;;15.09;100.00;101374.69;6122064;23;20418;-73
2022/09/24 09:47:41;;;;;;;2.40;2.20;;;;;;;15.25;100.00;101383.38;6122686;23;20463;-73
2022/09/24 09:50:24;;;;;;;2.40;2.00;;;;;;;15.23;100.00;101380.06;6096434;23;20200;-73
2022/09/24 09:52:50;;;;;;;3.33;2.33;;;;;;;15.30;100.00;101389.78;6096064;23;20413;-73
2022/09/24 09:55:30;;;;;;;2.23;2.03;;;;;;;15.12;100.00;101376.97;6121895;23;20381;-73
2022/09/24 09:58:08;;;;;;;2.43;2.23;;;;;;;15.08;100.00;101393.84;6094839;23;20393;-72
2022/09/24 10:00:35;;;;;;;2.30;1.73;;;;;;;14.97;100.00;101379.13;6122348;23;20441;-75
2022/09/24 10:03:01;;;;;;;1.60;1.50;;;;;;;14.72;100.00;101357.41;6120675;23;20452;-72
2022/09/24 10:05:27;;;;;;;1.80;1.70;;;;;;;14.76;100.00;101361.34;6096125;23;20434;-73
2022/09/24 10:07:56;;;;;;;2.20;1.57;;;;;;;14.87;100.00;101379.59;6096361;23;20394;-73
2022/09/24 10:10:28;;;;;;;2.83;1.80;;;;;;;14.72;100.00;101367.38;6122491;23;20880;-73
2022/09/24 10:13:07;;;;;;;2.17;1.90;;;;;;;14.84;100.00;101396.22;6121600;23;20477;-74
2022/09/24 10:15:34;;;;;;;2.43;2.17;;;;;;;14.83;100.00;101397.25;6121665;23;20415;-74
2022/09/24 10:18:00;;;;;;;2.67;2.43;;;;;;;14.33;100.00;101320.56;6122254;23;20853;-74
2022/09/24 10:20:32;;;;;;;3.03;2.73;;;;;;;14.63;100.00;101399.19;6089194;23;20404;-74
2022/09/24 10:23:02;;;;;;;2.90;2.60;;;;;;;14.71;100.00;101393.56;6093410;23;20409;-73
2022/09/24 10:25:29;;;;;;;2.80;2.60;;;;;;;14.66;100.00;101393.38;6120853;23;20483;-74
2022/09/24 10:31:19;;;;;;;3.30;2.80;;;;;;;14.79;100.00;101408.72;6120907;23;20401;-74
2022/09/24 10:33:48;;;;;;;3.90;3.30;;;;;;;14.59;100.00;101379.91;6092601;23;20424;-73
2022/09/24 10:36:18;;;;;;;2.90;2.20;;;;;;;14.53;100.00;101398.81;6116130;23;20393;-74
2022/09/24 10:38:43;;;;;;;2.40;1.47;;;;;;;14.51;100.00;101408.97;6117668;23;20489;-75
2022/09/24 10:41:27;;;;;;;3.53;1.60;;;;;;;14.36;100.00;101387.59;6120049;23;21059;-74
2022/09/24 10:43:53;;;;;;;4.67;1.33;;;;;;;14.50;100.00;101420.81;6118325;23;20170;-73
2022/09/24 10:46:49;;;;;;;3.83;1.20;;;;;;;14.44;100.00;101420.59;6092461;23;21006;-74
2022/09/24 10:49:28;;;;;;;5.30;1.17;;;;;;;14.54;100.00;101430.97;6118802;23;20814;-74
2022/09/24 10:52:17;;;;;;;2.37;1.03;;;;;;;14.58;100.00;101429.53;6118677;23;20542;-73
2022/09/24 10:54:56;;;;;;;2.87;1.20;;;;;;;14.72;100.00;101419.50;6117274;23;20370;-74
2022/09/24 10:57:51;;;;;;;3.87;1.00;;;;;;;14.79;100.00;101427.63;6117791;23;20397;-73
2022/09/24 11:00:35;;;;;;;6.23;1.20;;;;;;;14.83;100.00;101418.84;6091208;23;20389;-73
2022/09/24 11:03:28;;;;;;;3.23;1.07;;;;;;;14.92;100.00;101424.84;6115264;23;20520;-73
2022/09/24 11:06:08;;;;;;;4.37;1.00;;;;;;;15.00;100.00;101429.22;6116831;23;20939;-73
2022/09/24 11:08:52;;;;;;;2.50;1.17;;;;;;;15.14;100.00;101425.41;6093264;23;20822;-73
2022/09/24 11:11:27;;;;;;;5.20;1.83;;;;;;;15.06;100.00;101421.06;6092655;23;20414;-73
2022/09/24 11:13:55;;;;;;;4.60;1.20;;;;;;;15.20;100.00;101427.25;6116558;23;20404;-71
2022/09/24 11:17:00;;;;;;;4.03;1.30;;;;;;;15.45;100.00;101421.94;6115306;23;20386;-72
2022/09/24 11:19:30;;;;;;;5.73;2.97;;;;;;;15.69;100.00;101403.28;6119507;23;20436;-73
2022/09/24 11:22:08;;;;;;;6.37;2.83;;;;;;;16.20;100.00;101418.47;6120008;23;20381;-73
2022/09/24 11:24:56;;;;;;;3.47;2.53;;;;;;;16.46;100.00;101411.97;6118548;23;20440;-73
2022/09/24 11:27:21;;;;;;;3.90;2.83;;;;;;;15.88;100.00;101401.47;6122367;23;20377;-73
2022/09/24 11:30:13;;;;;;;5.07;2.83;;;;;;;15.76;100.00;101402.19;6120617;23;20728;-72
2022/09/24 11:33:05;;;;;;;8.60;3.70;;;;;;;15.44;100.00;101390.50;6094826;23;20186;-73